sensor_id;sensor_type;location;lat;lon;timestamp;P1;durP1;ratioP1;P2;durP2;ratioP2
77701;SDS011;66868;42.708;23.404;2023-01-26T00:01:20;4.97;;;4.47;;
77701;SDS011;66868;42.708;23.404;2023-01-26T00:03:48;5.07;;;4.67;;
77701;SDS011;66868;42.708;23.404;2023-01-26T00:06:14;5.93;;;4.23;;
77701;SDS011;66868;42.708;23.404;2023-01-26T00:08:42;9.17;;;5.27;;
77701;SDS011;66868;42.708;23.404;2023-01-26T00:11:10;6.67;;;5.33;;
77701;SDS011;66868;42.708;23.404;2023-01-26T00:13:37;5.63;;;4.93;;
77701;SDS011;66868;42.708;23.404;2023-01-26T00:16:03;5.30;;;4.80;;
77701;SDS011;66868;42.708;23.404;2023-01-26T00:18:29;5.43;;;4.77;;
77701;SDS011;66868;42.708;23.404;2023-01-26T00:20:56;6.43;;;5.10;;
77701;SDS011;66868;42.708;23.404;2023-01-26T00:23:23;5.33;;;4.87;;
77701;SDS011;66868;42.708;23.404;2023-01-26T00:25:49;5.27;;;4.77;;
77701;SDS011;66868;42.708;23.404;2023-01-26T00:28:14;6.80;;;4.70;;
77701;SDS011;66868;42.708;23.404;2023-01-26T00:30:40;7.33;;;4.80;;
77701;SDS011;66868;42.708;23.404;2023-01-26T00:33:05;7.33;;;5.30;;
77701;SDS011;66868;42.708;23.404;2023-01-26T00:35:30;5.53;;;4.83;;
77701;SDS011;66868;42.708;23.404;2023-01-26T00:37:56;6.60;;;4.70;;
77701;SDS011;66868;42.708;23.404;2023-01-26T00:40:21;5.27;;;4.77;;
77701;SDS011;66868;42.708;23.404;2023-01-26T00:42:47;6.83;;;4.30;;
77701;SDS011;66868;42.708;23.404;2023-01-26T00:45:12;5.57;;;4.97;;
77701;SDS011;66868;42.708;23.404;2023-01-26T00:47:37;4.90;;;4.50;;
77701;SDS011;66868;42.708;23.404;2023-01-26T00:50:03;5.17;;;4.50;;
77701;SDS011;66868;42.708;23.404;2023-01-26T00:52:29;5.43;;;4.93;;
77701;SDS011;66868;42.708;23.404;2023-01-26T00:54:54;4.53;;;4.13;;
77701;SDS011;66868;42.708;23.404;2023-01-26T00:57:19;5.87;;;4.57;;
77701;SDS011;66868;42.708;23.404;2023-01-26T00:59:45;4.87;;;4.40;;
77701;SDS011;66868;42.708;23.404;2023-01-26T01:02:10;5.57;;;4.93;;
77701;SDS011;66868;42.708;23.404;2023-01-26T01:04:35;5.17;;;4.20;;
77701;SDS011;66868;42.708;23.404;2023-01-26T01:07:01;6.37;;;4.77;;
77701;SDS011;66868;42.708;23.404;2023-01-26T01:09:26;4.57;;;4.23;;
77701;SDS011;66868;42.708;23.404;2023-01-26T01:11:52;5.20;;;4.67;;
77701;SDS011;66868;42.708;23.404;2023-01-26T01:14:17;5.53;;;4.90;;
77701;SDS011;66868;42.708;23.404;2023-01-26T01:16:43;5.07;;;4.40;;
77701;SDS011;66868;42.708;23.404;2023-01-26T01:19:14;7.30;;;4.70;;
77701;SDS011;66868;42.708;23.404;2023-01-26T01:21:41;4.70;;;4.30;;
77701;SDS011;66868;42.708;23.404;2023-01-26T01:24:07;4.77;;;4.37;;
77701;SDS011;66868;42.708;23.404;2023-01-26T01:26:33;12.13;;;5.13;;
77701;SDS011;66868;42.708;23.404;2023-01-26T01:28:58;5.13;;;4.37;;
77701;SDS011;66868;42.708;23.404;2023-01-26T01:31:24;5.03;;;4.20;;
77701;SDS011;66868;42.708;23.404;2023-01-26T01:33:50;5.27;;;4.80;;
77701;SDS011;66868;42.708;23.404;2023-01-26T01:36:17;6.10;;;5.33;;
77701;SDS011;66868;42.708;23.404;2023-01-26T01:38:43;4.80;;;4.40;;
77701;SDS011;66868;42.708;23.404;2023-01-26T01:41:10;4.70;;;4.30;;
77701;SDS011;66868;42.708;23.404;2023-01-26T01:43:41;5.97;;;4.53;;
77701;SDS011;66868;42.708;23.404;2023-01-26T01:46:08;4.33;;;3.93;;
77701;SDS011;66868;42.708;23.404;2023-01-26T01:51:35;9.37;;;4.63;;
77701;SDS011;66868;42.708;23.404;2023-01-26T01:54:09;4.80;;;4.40;;
77701;SDS011;66868;42.708;23.404;2023-01-26T01:56:39;4.77;;;4.10;;
77701;SDS011;66868;42.708;23.404;2023-01-26T01:59:08;3.60;;;3.30;;
77701;SDS011;66868;42.708;23.404;2023-01-26T02:01:36;4.50;;;4.10;;
77701;SDS011;66868;42.708;23.404;2023-01-26T02:04:02;4.17;;;3.87;;
77701;SDS011;66868;42.708;23.404;2023-01-26T02:06:35;4.37;;;3.97;;
77701;SDS011;66868;42.708;23.404;2023-01-26T02:09:06;5.90;;;4.70;;
77701;SDS011;66868;42.708;23.404;2023-01-26T02:11:54;5.47;;;3.90;;
77701;SDS011;66868;42.708;23.404;2023-01-26T02:14:20;4.83;;;4.37;;
77701;SDS011;66868;42.708;23.404;2023-01-26T02:16:46;5.33;;;4.23;;
77701;SDS011;66868;42.708;23.404;2023-01-26T02:19:13;4.93;;;4.33;;
77701;SDS011;66868;42.708;23.404;2023-01-26T02:21:54;5.40;;;4.10;;
77701;SDS011;66868;42.708;23.404;2023-01-26T02:24:28;6.23;;;4.40;;
77701;SDS011;66868;42.708;23.404;2023-01-26T02:26:59;6.00;;;5.03;;
77701;SDS011;66868;42.708;23.404;2023-01-26T02:29:25;4.70;;;4.30;;
77701;SDS011;66868;42.708;23.404;2023-01-26T02:31:50;6.80;;;4.23;;
77701;SDS011;66868;42.708;23.404;2023-01-26T02:34:17;4.97;;;4.50;;
77701;SDS011;66868;42.708;23.404;2023-01-26T02:36:43;7.80;;;4.67;;
77701;SDS011;66868;42.708;23.404;2023-01-26T02:42:04;4.77;;;4.23;;
77701;SDS011;66868;42.708;23.404;2023-01-26T02:44:48;6.13;;;4.83;;
77701;SDS011;66868;42.708;23.404;2023-01-26T02:47:17;5.27;;;4.77;;
77701;SDS011;66868;42.708;23.404;2023-01-26T02:49:43;7.20;;;4.73;;
77701;SDS011;66868;42.708;23.404;2023-01-26T02:52:13;4.53;;;4.13;;
77701;SDS011;66868;42.708;23.404;2023-01-26T02:54:39;4.90;;;4.47;;
77701;SDS011;66868;42.708;23.404;2023-01-26T02:57:23;7.73;;;5.67;;
77701;SDS011;66868;42.708;23.404;2023-01-26T02:59:50;7.73;;;4.90;;
77701;SDS011;66868;42.708;23.404;2023-01-26T03:02:16;4.53;;;4.13;;
77701;SDS011;66868;42.708;23.404;2023-01-26T03:04:41;5.07;;;4.43;;
77701;SDS011;66868;42.708;23.404;2023-01-26T03:07:08;4.97;;;4.43;;
77701;SDS011;66868;42.708;23.404;2023-01-26T03:09:33;5.03;;;4.63;;
77701;SDS011;66868;42.708;23.404;2023-01-26T03:11:59;4.73;;;4.33;;
77701;SDS011;66868;42.708;23.404;2023-01-26T03:14:24;5.20;;;4.70;;
77701;SDS011;66868;42.708;23.404;2023-01-26T03:16:49;5.43;;;4.47;;
77701;SDS011;66868;42.708;23.404;2023-01-26T03:19:15;4.53;;;4.13;;
77701;SDS011;66868;42.708;23.404;2023-01-26T03:21:59;5.23;;;4.73;;
77701;SDS011;66868;42.708;23.404;2023-01-26T03:24:43;5.80;;;4.60;;
77701;SDS011;66868;42.708;23.404;2023-01-26T03:27:28;4.33;;;4.03;;
77701;SDS011;66868;42.708;23.404;2023-01-26T03:30:04;4.70;;;4.27;;
77701;SDS011;66868;42.708;23.404;2023-01-26T03:32:30;5.50;;;4.13;;
77701;SDS011;66868;42.708;23.404;2023-01-26T03:34:56;7.43;;;3.87;;
77701;SDS011;66868;42.708;23.404;2023-01-26T03:37:21;4.00;;;3.70;;
77701;SDS011;66868;42.708;23.404;2023-01-26T03:39:48;3.93;;;3.63;;
77701;SDS011;66868;42.708;23.404;2023-01-26T03:42:32;3.77;;;3.47;;
77701;SDS011;66868;42.708;23.404;2023-01-26T03:45:17;4.07;;;3.67;;
77701;SDS011;66868;42.708;23.404;2023-01-26T03:48:04;3.30;;;3.10;;
77701;SDS011;66868;42.708;23.404;2023-01-26T03:50:51;5.10;;;4.20;;
77701;SDS011;66868;42.708;23.404;2023-01-26T03:53:35;7.60;;;5.07;;
77701;SDS011;66868;42.708;23.404;2023-01-26T03:56:18;12.70;;;7.97;;
77701;SDS011;66868;42.708;23.404;2023-01-26T03:58:49;14.70;;;6.50;;
77701;SDS011;66868;42.708;23.404;2023-01-26T04:01:17;8.90;;;5.33;;
77701;SDS011;66868;42.708;23.404;2023-01-26T04:03:46;9.57;;;6.20;;
77701;SDS011;66868;42.708;23.404;2023-01-26T04:06:30;5.20;;;4.70;;
77701;SDS011;66868;42.708;23.404;2023-01-26T04:09:14;5.90;;;4.73;;
77701;SDS011;66868;42.708;23.404;2023-01-26T04:11:40;7.10;;;4.87;;
77701;SDS011;66868;42.708;23.404;2023-01-26T04:14:05;5.53;;;4.50;;
77701;SDS011;66868;42.708;23.404;2023-01-26T04:16:49;9.27;;;6.10;;
77701;SDS011;66868;42.708;23.404;2023-01-26T04:19:33;11.33;;;4.60;;
77701;SDS011;66868;42.708;23.404;2023-01-26T04:22:17;7.23;;;4.77;;
77701;SDS011;66868;42.708;23.404;2023-01-26T04:24:42;9.23;;;5.60;;
77701;SDS011;66868;42.708;23.404;2023-01-26T04:27:08;8.77;;;5.53;;
77701;SDS011;66868;42.708;23.404;2023-01-26T04:29:35;9.50;;;6.17;;
77701;SDS011;66868;42.708;23.404;2023-01-26T04:32:01;6.43;;;4.63;;
77701;SDS011;66868;42.708;23.404;2023-01-26T04:34:26;3.80;;;3.50;;
77701;SDS011;66868;42.708;23.404;2023-01-26T04:36:51;4.30;;;3.90;;
77701;SDS011;66868;42.708;23.404;2023-01-26T04:39:17;4.27;;;3.83;;
77701;SDS011;66868;42.708;23.404;2023-01-26T04:41:42;4.13;;;3.73;;
77701;SDS011;66868;42.708;23.404;2023-01-26T04:44:08;8.33;;;3.80;;
77701;SDS011;66868;42.708;23.404;2023-01-26T04:46:33;3.67;;;3.30;;
77701;SDS011;66868;42.708;23.404;2023-01-26T04:48:59;3.47;;;3.20;;
77701;SDS011;66868;42.708;23.404;2023-01-26T04:51:24;5.23;;;3.93;;
77701;SDS011;66868;42.708;23.404;2023-01-26T04:53:49;3.33;;;3.13;;
77701;SDS011;66868;42.708;23.404;2023-01-26T04:56:22;3.67;;;3.47;;
77701;SDS011;66868;42.708;23.404;2023-01-26T04:58:50;3.13;;;2.93;;
77701;SDS011;66868;42.708;23.404;2023-01-26T05:01:16;3.90;;;3.60;;
77701;SDS011;66868;42.708;23.404;2023-01-26T05:03:41;3.10;;;2.90;;
77701;SDS011;66868;42.708;23.404;2023-01-26T05:06:07;3.27;;;3.07;;
77701;SDS011;66868;42.708;23.404;2023-01-26T05:08:32;3.23;;;3.03;;
77701;SDS011;66868;42.708;23.404;2023-01-26T05:10:58;3.83;;;3.53;;
77701;SDS011;66868;42.708;23.404;2023-01-26T05:13:23;3.83;;;3.43;;
77701;SDS011;66868;42.708;23.404;2023-01-26T05:15:48;3.60;;;3.30;;
77701;SDS011;66868;42.708;23.404;2023-01-26T05:18:14;3.73;;;3.40;;
77701;SDS011;66868;42.708;23.404;2023-01-26T05:20:39;4.40;;;4.10;;
77701;SDS011;66868;42.708;23.404;2023-01-26T05:23:05;4.83;;;4.37;;
77701;SDS011;66868;42.708;23.404;2023-01-26T05:25:30;3.97;;;3.67;;
77701;SDS011;66868;42.708;23.404;2023-01-26T05:27:56;5.10;;;4.17;;
77701;SDS011;66868;42.708;23.404;2023-01-26T05:30:21;4.43;;;4.07;;
77701;SDS011;66868;42.708;23.404;2023-01-26T05:32:47;4.07;;;3.57;;
77701;SDS011;66868;42.708;23.404;2023-01-26T05:35:12;4.97;;;3.43;;
77701;SDS011;66868;42.708;23.404;2023-01-26T05:37:38;3.80;;;3.50;;
77701;SDS011;66868;42.708;23.404;2023-01-26T05:40:06;4.33;;;3.97;;
77701;SDS011;66868;42.708;23.404;2023-01-26T05:42:31;5.67;;;5.07;;
77701;SDS011;66868;42.708;23.404;2023-01-26T05:44:57;5.90;;;4.97;;
77701;SDS011;66868;42.708;23.404;2023-01-26T05:47:22;8.57;;;5.93;;
77701;SDS011;66868;42.708;23.404;2023-01-26T05:49:47;5.73;;;4.40;;
77701;SDS011;66868;42.708;23.404;2023-01-26T05:52:14;8.70;;;5.63;;
77701;SDS011;66868;42.708;23.404;2023-01-26T05:54:41;7.97;;;5.50;;
77701;SDS011;66868;42.708;23.404;2023-01-26T05:57:07;5.60;;;5.10;;
77701;SDS011;66868;42.708;23.404;2023-01-26T05:59:33;9.40;;;5.20;;
77701;SDS011;66868;42.708;23.404;2023-01-26T06:01:58;10.10;;;5.13;;
77701;SDS011;66868;42.708;23.404;2023-01-26T06:04:24;8.40;;;6.10;;
77701;SDS011;66868;42.708;23.404;2023-01-26T06:06:54;8.27;;;5.50;;
77701;SDS011;66868;42.708;23.404;2023-01-26T06:09:20;8.60;;;5.70;;
77701;SDS011;66868;42.708;23.404;2023-01-26T06:11:46;7.87;;;5.60;;
77701;SDS011;66868;42.708;23.404;2023-01-26T06:14:12;12.40;;;6.57;;
77701;SDS011;66868;42.708;23.404;2023-01-26T06:16:37;17.33;;;6.80;;
77701;SDS011;66868;42.708;23.404;2023-01-26T06:19:03;20.77;;;7.83;;
77701;SDS011;66868;42.708;23.404;2023-01-26T06:21:29;11.40;;;6.97;;
77701;SDS011;66868;42.708;23.404;2023-01-26T06:23:55;9.23;;;6.47;;
77701;SDS011;66868;42.708;23.404;2023-01-26T06:26:20;12.43;;;6.83;;
77701;SDS011;66868;42.708;23.404;2023-01-26T06:28:48;8.90;;;6.70;;
77701;SDS011;66868;42.708;23.404;2023-01-26T06:31:14;11.47;;;7.50;;
77701;SDS011;66868;42.708;23.404;2023-01-26T06:33:39;13.37;;;7.43;;
77701;SDS011;66868;42.708;23.404;2023-01-26T06:36:06;12.83;;;7.80;;
77701;SDS011;66868;42.708;23.404;2023-01-26T06:38:34;9.20;;;6.97;;
77701;SDS011;66868;42.708;23.404;2023-01-26T06:41:00;8.70;;;6.40;;
77701;SDS011;66868;42.708;23.404;2023-01-26T06:43:33;12.53;;;8.67;;
77701;SDS011;66868;42.708;23.404;2023-01-26T06:46:00;16.07;;;7.00;;
77701;SDS011;66868;42.708;23.404;2023-01-26T06:48:27;12.03;;;7.17;;
77701;SDS011;66868;42.708;23.404;2023-01-26T06:51:03;11.50;;;6.63;;
77701;SDS011;66868;42.708;23.404;2023-01-26T06:53:53;19.40;;;9.67;;
77701;SDS011;66868;42.708;23.404;2023-01-26T06:56:18;12.50;;;6.80;;
77701;SDS011;66868;42.708;23.404;2023-01-26T06:58:44;10.90;;;7.53;;
77701;SDS011;66868;42.708;23.404;2023-01-26T07:01:13;14.20;;;7.80;;
77701;SDS011;66868;42.708;23.404;2023-01-26T07:03:41;15.17;;;9.63;;
77701;SDS011;66868;42.708;23.404;2023-01-26T07:06:06;12.07;;;7.70;;
77701;SDS011;66868;42.708;23.404;2023-01-26T07:08:35;11.83;;;6.77;;
77701;SDS011;66868;42.708;23.404;2023-01-26T07:11:00;14.20;;;7.57;;
77701;SDS011;66868;42.708;23.404;2023-01-26T07:13:26;9.47;;;6.10;;
77701;SDS011;66868;42.708;23.404;2023-01-26T07:15:51;13.00;;;7.83;;
77701;SDS011;66868;42.708;23.404;2023-01-26T07:18:23;10.57;;;6.97;;
77701;SDS011;66868;42.708;23.404;2023-01-26T07:20:49;8.80;;;6.57;;
77701;SDS011;66868;42.708;23.404;2023-01-26T07:23:14;11.90;;;7.60;;
77701;SDS011;66868;42.708;23.404;2023-01-26T07:25:41;12.03;;;6.83;;
77701;SDS011;66868;42.708;23.404;2023-01-26T07:28:07;8.73;;;7.03;;
77701;SDS011;66868;42.708;23.404;2023-01-26T07:30:34;12.53;;;8.27;;
77701;SDS011;66868;42.708;23.404;2023-01-26T07:33:00;13.13;;;6.60;;
77701;SDS011;66868;42.708;23.404;2023-01-26T07:35:25;8.80;;;7.27;;
77701;SDS011;66868;42.708;23.404;2023-01-26T07:37:51;8.73;;;6.80;;
77701;SDS011;66868;42.708;23.404;2023-01-26T07:40:16;11.27;;;7.83;;
77701;SDS011;66868;42.708;23.404;2023-01-26T07:42:42;11.20;;;6.57;;
77701;SDS011;66868;42.708;23.404;2023-01-26T07:45:07;8.33;;;6.50;;
77701;SDS011;66868;42.708;23.404;2023-01-26T07:47:33;8.93;;;6.10;;
77701;SDS011;66868;42.708;23.404;2023-01-26T07:49:59;7.73;;;5.93;;
77701;SDS011;66868;42.708;23.404;2023-01-26T07:52:25;6.70;;;5.50;;
77701;SDS011;66868;42.708;23.404;2023-01-26T07:54:50;8.00;;;6.07;;
77701;SDS011;66868;42.708;23.404;2023-01-26T07:57:16;7.20;;;6.50;;
77701;SDS011;66868;42.708;23.404;2023-01-26T07:59:41;8.37;;;6.20;;
77701;SDS011;66868;42.708;23.404;2023-01-26T08:02:08;7.30;;;5.70;;
77701;SDS011;66868;42.708;23.404;2023-01-26T08:04:34;6.00;;;5.33;;
77701;SDS011;66868;42.708;23.404;2023-01-26T08:06:59;8.70;;;7.47;;
77701;SDS011;66868;42.708;23.404;2023-01-26T08:09:25;7.87;;;6.10;;
77701;SDS011;66868;42.708;23.404;2023-01-26T08:11:50;8.23;;;6.23;;
77701;SDS011;66868;42.708;23.404;2023-01-26T08:14:16;6.17;;;5.50;;
77701;SDS011;66868;42.708;23.404;2023-01-26T08:16:41;9.63;;;5.77;;
77701;SDS011;66868;42.708;23.404;2023-01-26T08:19:06;5.53;;;5.03;;
77701;SDS011;66868;42.708;23.404;2023-01-26T08:21:32;5.83;;;5.23;;
77701;SDS011;66868;42.708;23.404;2023-01-26T08:23:57;6.63;;;6.00;;
77701;SDS011;66868;42.708;23.404;2023-01-26T08:26:25;10.13;;;6.37;;
77701;SDS011;66868;42.708;23.404;2023-01-26T08:28:51;8.40;;;7.47;;
77701;SDS011;66868;42.708;23.404;2023-01-26T08:31:18;8.33;;;6.80;;
77701;SDS011;66868;42.708;23.404;2023-01-26T08:33:45;7.43;;;6.07;;
77701;SDS011;66868;42.708;23.404;2023-01-26T08:36:14;8.70;;;6.10;;
77701;SDS011;66868;42.708;23.404;2023-01-26T08:38:41;6.30;;;5.70;;
77701;SDS011;66868;42.708;23.404;2023-01-26T08:41:07;6.47;;;5.73;;
77701;SDS011;66868;42.708;23.404;2023-01-26T08:43:33;6.17;;;5.57;;
77701;SDS011;66868;42.708;23.404;2023-01-26T08:45:59;6.00;;;5.50;;
77701;SDS011;66868;42.708;23.404;2023-01-26T08:48:24;5.90;;;5.40;;
77701;SDS011;66868;42.708;23.404;2023-01-26T08:50:53;6.87;;;6.17;;
77701;SDS011;66868;42.708;23.404;2023-01-26T08:53:20;9.27;;;5.97;;
77701;SDS011;66868;42.708;23.404;2023-01-26T08:55:45;5.93;;;5.23;;
77701;SDS011;66868;42.708;23.404;2023-01-26T08:58:11;4.87;;;4.47;;
77701;SDS011;66868;42.708;23.404;2023-01-26T09:00:36;6.03;;;5.40;;
77701;SDS011;66868;42.708;23.404;2023-01-26T09:03:02;5.77;;;5.23;;
77701;SDS011;66868;42.708;23.404;2023-01-26T09:05:35;7.27;;;6.53;;
77701;SDS011;66868;42.708;23.404;2023-01-26T09:08:03;6.30;;;5.77;;
77701;SDS011;66868;42.708;23.404;2023-01-26T09:10:29;7.60;;;6.20;;
77701;SDS011;66868;42.708;23.404;2023-01-26T09:12:58;7.80;;;6.20;;
77701;SDS011;66868;42.708;23.404;2023-01-26T09:15:24;6.90;;;6.00;;
77701;SDS011;66868;42.708;23.404;2023-01-26T09:17:50;4.10;;;3.80;;
77701;SDS011;66868;42.708;23.404;2023-01-26T09:20:16;6.00;;;5.27;;
77701;SDS011;66868;42.708;23.404;2023-01-26T09:22:42;4.97;;;4.57;;
77701;SDS011;66868;42.708;23.404;2023-01-26T09:25:07;5.40;;;4.50;;
77701;SDS011;66868;42.708;23.404;2023-01-26T09:27:33;4.90;;;4.50;;
77701;SDS011;66868;42.708;23.404;2023-01-26T09:30:00;4.77;;;4.33;;
77701;SDS011;66868;42.708;23.404;2023-01-26T09:32:26;8.57;;;4.47;;
77701;SDS011;66868;42.708;23.404;2023-01-26T09:34:51;5.97;;;5.33;;
77701;SDS011;66868;42.708;23.404;2023-01-26T09:37:17;11.27;;;5.13;;
77701;SDS011;66868;42.708;23.404;2023-01-26T09:39:42;9.53;;;4.80;;
77701;SDS011;66868;42.708;23.404;2023-01-26T09:42:24;42.87;;;17.07;;
77701;SDS011;66868;42.708;23.404;2023-01-26T09:50:11;4.20;;;3.80;;
77701;SDS011;66868;42.708;23.404;2023-01-26T09:52:47;4.77;;;4.40;;
77701;SDS011;66868;42.708;23.404;2023-01-26T09:55:19;3.63;;;3.40;;
77701;SDS011;66868;42.708;23.404;2023-01-26T10:02:59;3.47;;;3.17;;
77701;SDS011;66868;42.708;23.404;2023-01-26T10:05:51;2.93;;;2.70;;
77701;SDS011;66868;42.708;23.404;2023-01-26T10:08:23;5.00;;;3.33;;
77701;SDS011;66868;42.708;23.404;2023-01-26T10:16:40;3.10;;;2.90;;
77701;SDS011;66868;42.708;23.404;2023-01-26T10:19:13;4.40;;;2.80;;
77701;SDS011;66868;42.708;23.404;2023-01-26T10:22:02;2.30;;;2.20;;
77701;SDS011;66868;42.708;23.404;2023-01-26T10:24:34;2.17;;;2.07;;
77701;SDS011;66868;42.708;23.404;2023-01-26T10:26:59;2.30;;;2.20;;
77701;SDS011;66868;42.708;23.404;2023-01-26T10:29:25;2.57;;;2.47;;
77701;SDS011;66868;42.708;23.404;2023-01-26T10:31:50;2.00;;;1.90;;
77701;SDS011;66868;42.708;23.404;2023-01-26T10:34:16;2.40;;;2.30;;
77701;SDS011;66868;42.708;23.404;2023-01-26T10:36:47;4.77;;;2.57;;
77701;SDS011;66868;42.708;23.404;2023-01-26T10:39:14;4.93;;;3.37;;
77701;SDS011;66868;42.708;23.404;2023-01-26T10:41:54;2.90;;;2.80;;
77701;SDS011;66868;42.708;23.404;2023-01-26T10:49:39;4.07;;;3.77;;
77701;SDS011;66868;42.708;23.404;2023-01-26T10:52:23;4.40;;;3.50;;
77701;SDS011;66868;42.708;23.404;2023-01-26T10:55:18;6.07;;;5.47;;
77701;SDS011;66868;42.708;23.404;2023-01-26T10:57:44;4.97;;;4.50;;
77701;SDS011;66868;42.708;23.404;2023-01-26T11:00:26;6.10;;;4.93;;
77701;SDS011;66868;42.708;23.404;2023-01-26T11:02:54;8.23;;;5.53;;
77701;SDS011;66868;42.708;23.404;2023-01-26T11:05:25;6.73;;;4.67;;
77701;SDS011;66868;42.708;23.404;2023-01-26T11:07:52;4.57;;;4.10;;
77701;SDS011;66868;42.708;23.404;2023-01-26T11:12:48;6.43;;;5.70;;
77701;SDS011;66868;42.708;23.404;2023-01-26T11:20:34;5.00;;;4.23;;
77701;SDS011;66868;42.708;23.404;2023-01-26T11:23:26;3.40;;;3.13;;
77701;SDS011;66868;42.708;23.404;2023-01-26T11:53:54;4.47;;;4.07;;
77701;SDS011;66868;42.708;23.404;2023-01-26T11:56:34;3.37;;;3.10;;
77701;SDS011;66868;42.708;23.404;2023-01-26T11:59:05;5.10;;;3.87;;
77701;SDS011;66868;42.708;23.404;2023-01-26T12:01:41;9.20;;;4.90;;
77701;SDS011;66868;42.708;23.404;2023-01-26T12:04:19;4.30;;;3.90;;
77701;SDS011;66868;42.708;23.404;2023-01-26T12:07:00;8.27;;;4.77;;
77701;SDS011;66868;42.708;23.404;2023-01-26T12:09:34;5.30;;;4.90;;
77701;SDS011;66868;42.708;23.404;2023-01-26T12:12:10;3.77;;;3.47;;
77701;SDS011;66868;42.708;23.404;2023-01-26T12:22:49;3.90;;;3.70;;
77701;SDS011;66868;42.708;23.404;2023-01-26T12:33:39;5.13;;;4.47;;
77701;SDS011;66868;42.708;23.404;2023-01-26T12:47:09;7.67;;;4.80;;
77701;SDS011;66868;42.708;23.404;2023-01-26T12:55:21;4.90;;;3.60;;
77701;SDS011;66868;42.708;23.404;2023-01-26T12:57:49;4.33;;;4.00;;
77701;SDS011;66868;42.708;23.404;2023-01-26T13:00:25;4.83;;;3.73;;
77701;SDS011;66868;42.708;23.404;2023-01-26T13:03:05;6.87;;;5.13;;
77701;SDS011;66868;42.708;23.404;2023-01-26T13:10:54;5.23;;;4.83;;
77701;SDS011;66868;42.708;23.404;2023-01-26T13:15:46;4.33;;;4.03;;
77701;SDS011;66868;42.708;23.404;2023-01-26T13:18:15;4.53;;;4.10;;
77701;SDS011;66868;42.708;23.404;2023-01-26T13:28:44;4.80;;;4.50;;
77701;SDS011;66868;42.708;23.404;2023-01-26T13:31:10;6.07;;;5.47;;
77701;SDS011;66868;42.708;23.404;2023-01-26T13:33:37;8.70;;;5.77;;
77701;SDS011;66868;42.708;23.404;2023-01-26T13:36:09;30.17;;;11.80;;
77701;SDS011;66868;42.708;23.404;2023-01-26T13:38:43;23.83;;;10.60;;
77701;SDS011;66868;42.708;23.404;2023-01-26T13:41:20;7.00;;;6.30;;
77701;SDS011;66868;42.708;23.404;2023-01-26T13:43:49;6.53;;;5.93;;
77701;SDS011;66868;42.708;23.404;2023-01-26T13:46:21;7.57;;;6.73;;
77701;SDS011;66868;42.708;23.404;2023-01-26T13:48:56;8.33;;;6.40;;
77701;SDS011;66868;42.708;23.404;2023-01-26T13:51:25;8.53;;;6.00;;
77701;SDS011;66868;42.708;23.404;2023-01-26T13:58:49;12.00;;;7.83;;
77701;SDS011;66868;42.708;23.404;2023-01-26T14:01:16;12.20;;;8.33;;
77701;SDS011;66868;42.708;23.404;2023-01-26T14:03:41;39.40;;;18.23;;
77701;SDS011;66868;42.708;23.404;2023-01-26T14:08:51;18.83;;;9.53;;
77701;SDS011;66868;42.708;23.404;2023-01-26T14:11:21;14.37;;;9.60;;
77701;SDS011;66868;42.708;23.404;2023-01-26T14:13:52;26.87;;;13.20;;
77701;SDS011;66868;42.708;23.404;2023-01-26T14:16:24;16.07;;;8.80;;
77701;SDS011;66868;42.708;23.404;2023-01-26T14:21:50;17.57;;;10.20;;
77701;SDS011;66868;42.708;23.404;2023-01-26T14:24:17;13.10;;;7.93;;
77701;SDS011;66868;42.708;23.404;2023-01-26T14:26:49;26.53;;;10.57;;
77701;SDS011;66868;42.708;23.404;2023-01-26T14:29:21;58.70;;;19.27;;
77701;SDS011;66868;42.708;23.404;2023-01-26T14:31:49;26.83;;;12.60;;
77701;SDS011;66868;42.708;23.404;2023-01-26T14:34:21;36.93;;;13.43;;
77701;SDS011;66868;42.708;23.404;2023-01-26T14:36:48;45.87;;;17.80;;
77701;SDS011;66868;42.708;23.404;2023-01-26T14:39:35;45.93;;;21.40;;
77701;SDS011;66868;42.708;23.404;2023-01-26T14:42:00;41.07;;;17.63;;
77701;SDS011;66868;42.708;23.404;2023-01-26T14:44:27;25.50;;;13.00;;
77701;SDS011;66868;42.708;23.404;2023-01-26T14:52:31;22.30;;;12.73;;
77701;SDS011;66868;42.708;23.404;2023-01-26T14:55:09;23.70;;;14.47;;
77701;SDS011;66868;42.708;23.404;2023-01-26T14:57:47;23.20;;;14.10;;
77701;SDS011;66868;42.708;23.404;2023-01-26T15:00:46;27.60;;;15.43;;
77701;SDS011;66868;42.708;23.404;2023-01-26T15:03:11;30.00;;;16.80;;
77701;SDS011;66868;42.708;23.404;2023-01-26T15:05:42;34.30;;;17.00;;
77701;SDS011;66868;42.708;23.404;2023-01-26T15:08:19;17.87;;;9.17;;
77701;SDS011;66868;42.708;23.404;2023-01-26T15:13:45;16.83;;;9.27;;
77701;SDS011;66868;42.708;23.404;2023-01-26T15:16:19;17.60;;;9.37;;
77701;SDS011;66868;42.708;23.404;2023-01-26T15:18:56;8.63;;;7.73;;
77701;SDS011;66868;42.708;23.404;2023-01-26T15:21:32;12.50;;;8.93;;
77701;SDS011;66868;42.708;23.404;2023-01-26T15:24:03;11.07;;;8.53;;
77701;SDS011;66868;42.708;23.404;2023-01-26T15:26:30;7.90;;;6.73;;
77701;SDS011;66868;42.708;23.404;2023-01-26T15:28:57;10.53;;;7.60;;
77701;SDS011;66868;42.708;23.404;2023-01-26T15:34:32;7.47;;;5.57;;
77701;SDS011;66868;42.708;23.404;2023-01-26T15:36:58;10.13;;;7.43;;
77701;SDS011;66868;42.708;23.404;2023-01-26T15:39:25;14.23;;;9.60;;
77701;SDS011;66868;42.708;23.404;2023-01-26T15:42:11;12.97;;;8.57;;
77701;SDS011;66868;42.708;23.404;2023-01-26T15:44:37;11.23;;;7.43;;
77701;SDS011;66868;42.708;23.404;2023-01-26T15:47:03;15.77;;;8.77;;
77701;SDS011;66868;42.708;23.404;2023-01-26T15:49:32;11.70;;;8.33;;
77701;SDS011;66868;42.708;23.404;2023-01-26T15:51:57;16.53;;;10.57;;
77701;SDS011;66868;42.708;23.404;2023-01-26T15:54:22;20.67;;;11.07;;
77701;SDS011;66868;42.708;23.404;2023-01-26T15:56:48;18.60;;;10.00;;
77701;SDS011;66868;42.708;23.404;2023-01-26T15:59:13;11.43;;;7.73;;
77701;SDS011;66868;42.708;23.404;2023-01-26T16:01:38;15.03;;;8.53;;
77701;SDS011;66868;42.708;23.404;2023-01-26T16:04:04;24.53;;;11.17;;
77701;SDS011;66868;42.708;23.404;2023-01-26T16:06:30;16.03;;;8.53;;
77701;SDS011;66868;42.708;23.404;2023-01-26T16:08:57;11.83;;;7.13;;
77701;SDS011;66868;42.708;23.404;2023-01-26T16:11:30;22.87;;;10.47;;
77701;SDS011;66868;42.708;23.404;2023-01-26T16:13:58;21.57;;;9.30;;
77701;SDS011;66868;42.708;23.404;2023-01-26T16:16:26;29.80;;;11.17;;
77701;SDS011;66868;42.708;23.404;2023-01-26T16:18:54;22.97;;;8.57;;
77701;SDS011;66868;42.708;23.404;2023-01-26T16:21:21;45.43;;;14.87;;
77701;SDS011;66868;42.708;23.404;2023-01-26T16:23:49;35.87;;;13.80;;
77701;SDS011;66868;42.708;23.404;2023-01-26T16:26:15;32.63;;;13.97;;
77701;SDS011;66868;42.708;23.404;2023-01-26T16:28:42;19.07;;;8.63;;
77701;SDS011;66868;42.708;23.404;2023-01-26T16:31:18;13.00;;;6.80;;
77701;SDS011;66868;42.708;23.404;2023-01-26T16:33:46;16.63;;;8.13;;
77701;SDS011;66868;42.708;23.404;2023-01-26T16:36:12;24.80;;;10.37;;
77701;SDS011;66868;42.708;23.404;2023-01-26T16:38:38;13.43;;;7.60;;
77701;SDS011;66868;42.708;23.404;2023-01-26T16:41:04;10.53;;;7.13;;
77701;SDS011;66868;42.708;23.404;2023-01-26T16:43:33;16.83;;;9.43;;
77701;SDS011;66868;42.708;23.404;2023-01-26T16:46:04;38.23;;;16.37;;
77701;SDS011;66868;42.708;23.404;2023-01-26T16:48:30;23.23;;;11.93;;
77701;SDS011;66868;42.708;23.404;2023-01-26T16:50:58;36.53;;;16.03;;
77701;SDS011;66868;42.708;23.404;2023-01-26T16:53:27;165.63;;;49.20;;